Time;durP1;ratioP1;P1;durP2;ratioP2;P2;SDS_P1;SDS_P2;PMS_P1;PMS_P2;Temp;Humidity;BMP_temperature;BMP_pressure;BME280_temperature;BME280_humidity;BME280_pressure;Samples;Min_cycle;Max_cycle;Signal;HPM_P1;HPM_P2
2023/06/21 00:06:37;;;;;;;9.25;4.32;;;14.90;99.90;;;;;;21154330;28;20035;-50
2023/06/21 00:16:39;;;;;;;14.20;4.93;;;14.80;99.90;;;;;;21153497;28;20035;-46
2023/06/21 00:26:40;;;;;;;9.10;4.70;;;14.70;99.90;;;;;;21151031;28;20035;-47
2023/06/21 00:36:44;;;;;;;10.55;4.68;;;14.90;99.90;;;;;;21134754;28;20481;-50
2023/06/21 00:46:45;;;;;;;12.35;3.97;;;14.80;99.90;;;;;;21150967;28;20155;-52
2023/06/21 00:56:47;;;;;;;9.48;3.70;;;14.70;99.90;;;;;;21150018;28;20027;-48
2023/06/21 01:07:03;;;;;;;13.50;3.92;;;14.70;99.90;;;;;;21149941;28;20054;-50
2023/06/21 01:17:09;;;;;;;10.30;3.90;;;14.70;99.90;;;;;;21127618;28;20092;-49
2023/06/21 01:27:41;;;;;;;11.65;4.30;;;14.70;99.90;;;;;;21147359;28;20027;-48
2023/06/21 01:37:43;;;;;;;13.40;4.55;;;14.60;99.90;;;;;;21147935;28;20032;-49
2023/06/21 01:47:45;;;;;;;12.05;4.32;;;14.50;99.90;;;;;;21068971;28;20509;-49
2023/06/21 01:57:47;;;;;;;12.00;4.55;;;14.40;99.90;;;;;;21067749;28;20023;-48
2023/06/21 02:07:49;;;;;;;8.35;4.88;;;14.30;99.90;;;;;;21062132;28;20035;-47
2023/06/21 02:17:51;;;;;;;12.52;4.63;;;14.20;99.90;;;;;;21068414;28;20036;-50
2023/06/21 02:27:55;;;;;;;6.47;4.45;;;14.20;99.90;;;;;;21062528;28;20077;-54
2023/06/21 02:37:57;;;;;;;9.05;4.78;;;14.20;99.90;;;;;;21063830;28;20440;-48
2023/06/21 02:47:59;;;;;;;8.80;4.80;;;14.30;99.90;;;;;;21160926;28;20330;-49
2023/06/21 02:58:01;;;;;;;11.48;4.80;;;14.30;99.90;;;;;;21142810;28;20089;-51
2023/06/21 03:08:04;;;;;;;16.02;4.55;;;14.30;99.90;;;;;;21159352;28;20088;-52
2023/06/21 03:18:05;;;;;;;10.48;4.38;;;14.50;99.90;;;;;;21158249;28;20024;-47
2023/06/21 03:28:07;;;;;;;9.07;4.40;;;14.50;99.90;;;;;;21157517;28;20039;-48
2023/06/21 03:38:09;;;;;;;9.75;4.55;;;14.50;99.90;;;;;;21138656;28;20061;-49
2023/06/21 03:48:15;;;;;;;11.30;4.40;;;14.80;99.90;;;;;;21155405;28;20092;-50
2023/06/21 03:58:17;;;;;;;10.60;4.45;;;14.90;99.90;;;;;;21154866;28;20105;-49
2023/06/21 04:08:22;;;;;;;12.25;4.35;;;15.10;99.90;;;;;;21118722;28;20085;-53
2023/06/21 04:18:24;;;;;;;8.55;4.18;;;15.10;99.90;;;;;;21151619;28;20649;-45
2023/06/21 04:28:26;;;;;;;9.15;4.53;;;15.30;99.90;;;;;;21134488;28;20534;-49
2023/06/21 04:38:29;;;;;;;12.77;4.15;;;15.60;99.90;;;;;;21133866;28;20039;-50
2023/06/21 04:48:31;;;;;;;10.63;4.40;;;15.90;99.90;;;;;;21151298;28;20053;-51
2023/06/21 04:58:35;;;;;;;14.48;4.38;;;15.80;99.90;;;;;;21150338;28;20027;-47
2023/06/21 05:08:37;;;;;;;11.40;4.82;;;16.00;99.90;;;;;;21149170;28;20027;-53
2023/06/21 05:18:38;;;;;;;11.30;5.00;;;16.10;99.90;;;;;;21149033;28;20077;-50
2023/06/21 05:28:40;;;;;;;10.95;5.35;;;16.30;99.90;;;;;;21148105;28;20028;-51
2023/06/21 05:38:42;;;;;;;10.30;5.47;;;16.50;99.90;;;;;;21147994;28;20044;-48
2023/06/21 05:48:43;;;;;;;10.70;5.93;;;16.80;99.90;;;;;;21147123;28;20036;-51
2023/06/21 05:58:45;;;;;;;8.45;5.43;;;17.20;99.90;;;;;;21146775;28;20039;-45
2023/06/21 06:08:46;;;;;;;7.93;5.00;;;17.60;99.90;;;;;;21146642;28;20548;-51
2023/06/21 06:18:48;;;;;;;10.20;5.53;;;18.70;99.90;;;;;;21157398;28;20035;-52
2023/06/21 06:28:54;;;;;;;8.18;4.82;;;21.10;99.30;;;;;;21159191;28;20032;-52
2023/06/21 06:38:55;;;;;;;7.85;5.30;;;23.20;95.70;;;;;;21161431;28;20378;-48
2023/06/21 06:48:57;;;;;;;7.07;5.32;;;24.20;95.10;;;;;;21160534;28;20034;-49
2023/06/21 06:58:59;;;;;;;9.15;5.70;;;25.40;94.70;;;;;;21159135;28;20031;-54
2023/06/21 07:09:02;;;;;;;9.07;5.40;;;26.40;91.20;;;;;;21157269;28;20612;-53
2023/06/21 07:19:04;;;;;;;7.20;5.13;;;27.70;90.80;;;;;;21156920;28;20031;-54
2023/06/21 07:29:05;;;;;;;8.68;6.25;;;28.70;90.20;;;;;;21155812;28;20042;-55
2023/06/21 07:39:07;;;;;;;10.43;7.38;;;29.40;87.30;;;;;;21152242;28;20108;-54
2023/06/21 07:49:08;;;;;;;12.25;7.07;;;29.70;86.50;;;;;;21118202;28;20389;-53
2023/06/21 07:59:10;;;;;;;11.95;6.95;;;29.70;83.80;;;;;;21122049;28;20085;-56
2023/06/21 08:09:12;;;;;;;9.60;7.07;;;29.50;85.30;;;;;;21146230;28;20044;-51
2023/06/21 08:19:14;;;;;;;9.30;6.88;;;29.50;86.50;;;;;;21110972;28;20040;-53
2023/06/21 08:29:15;;;;;;;10.77;7.50;;;29.30;88.80;;;;;;21128576;28;20027;-52
2023/06/21 08:39:17;;;;;;;13.68;7.15;;;29.70;87.70;;;;;;21137398;28;20120;-54
2023/06/21 08:49:20;;;;;;;15.35;8.15;;;29.40;87.80;;;;;;21151261;28;20544;-54
2023/06/21 08:59:35;;;;;;;11.05;8.15;;;29.70;86.10;;;;;;21149998;28;20225;-54
2023/06/21 09:09:37;;;;;;;11.38;9.15;;;30.10;87.70;;;;;;21149013;28;20061;-54
2023/06/21 09:19:40;;;;;;;13.98;8.63;;;30.20;89.30;;;;;;21148896;28;20036;-54
2023/06/21 09:29:42;;;;;;;10.05;8.07;;;30.30;87.90;;;;;;21147970;28;20057;-49
2023/06/21 09:39:54;;;;;;;9.38;8.45;;;30.20;89.80;;;;;;21139246;28;20043;-54
2023/06/21 09:49:56;;;;;;;12.18;9.70;;;30.60;88.90;;;;;;21146461;28;20036;-55
2023/06/21 10:00:05;;;;;;;11.63;9.35;;;30.90;88.50;;;;;;21146492;28;20081;-52
2023/06/21 10:10:14;;;;;;;12.38;9.48;;;30.30;90.50;;;;;;21144169;28;20028;-53
2023/06/21 10:20:17;;;;;;;11.75;10.52;;;30.30;90.40;;;;;;21141956;28;20023;-53
2023/06/21 10:30:21;;;;;;;14.65;10.90;;;30.30;91.20;;;;;;21143774;28;20077;-55
2023/06/21 10:40:23;;;;;;;16.15;12.40;;;30.50;90.50;;;;;;21144448;28;20116;-52
2023/06/21 10:50:24;;;;;;;16.33;12.85;;;30.80;90.60;;;;;;21144538;28;20104;-56
2023/06/21 11:00:28;;;;;;;14.90;12.40;;;30.60;90.40;;;;;;21147988;28;20035;-53
2023/06/21 11:10:53;;;;;;;16.98;12.75;;;30.30;91.70;;;;;;21159045;28;20057;-53
2023/06/21 11:20:57;;;;;;;13.37;11.27;;;30.20;91.00;;;;;;21150026;28;20032;-52
2023/06/21 11:31:07;;;;;;;11.65;9.82;;;30.30;92.40;;;;;;21135625;28;20038;-53
2023/06/21 11:41:45;;;;;;;12.82;10.00;;;30.90;91.10;;;;;;21152859;28;20441;-54
2023/06/21 11:52:02;;;;;;;15.23;10.32;;;31.00;91.30;;;;;;20771546;28;20601;-53
2023/06/21 12:02:20;;;;;;;15.88;10.57;;;31.20;90.10;;;;;;20779314;28;20112;-54
2023/06/21 12:12:25;;;;;;;15.40;11.43;;;31.20;88.70;;;;;;20795855;28;20068;-54
2023/06/21 12:22:27;;;;;;;20.03;15.83;;;30.60;90.70;;;;;;20989215;28;20110;-47
2023/06/21 12:32:28;;;;;;;26.17;20.20;;;30.30;92.00;;;;;;21152463;28;20035;-53
2023/06/21 12:42:31;;;;;;;23.73;18.10;;;30.10;91.70;;;;;;21151405;28;20035;-52
2023/06/21 12:52:33;;;;;;;24.13;17.00;;;30.40;90.40;;;;;;21130763;28;20057;-54
2023/06/21 13:02:34;;;;;;;17.45;14.57;;;30.60;91.10;;;;;;21150178;28;20097;-53
2023/06/21 13:12:38;;;;;;;16.75;14.60;;;30.90;89.00;;;;;;21149187;28;20032;-53
2023/06/21 13:22:39;;;;;;;15.38;13.57;;;30.80;88.70;;;;;;21148389;28;20104;-55
2023/06/21 13:32:41;;;;;;;15.43;13.68;;;30.80;90.00;;;;;;21148167;28;20545;-55
2023/06/21 13:42:42;;;;;;;20.52;17.02;;;30.70;89.90;;;;;;21147521;28;20047;-46
2023/06/21 13:52:45;;;;;;;16.52;11.85;;;30.60;87.70;;;;;;21147423;28;20108;-54
2023/06/21 14:02:50;;;;;;;14.02;10.63;;;30.70;89.60;;;;;;21147767;28;20084;-52
2023/06/21 14:12:52;;;;;;;15.87;8.70;;;31.00;89.90;;;;;;21146151;28;20027;-53
2023/06/21 14:22:53;;;;;;;12.70;8.88;;;31.20;87.10;;;;;;21146118;28;20042;-55
2023/06/21 14:32:55;;;;;;;14.55;10.15;;;31.40;88.30;;;;;;21143349;28;20032;-53
2023/06/21 14:42:56;;;;;;;15.43;8.60;;;31.40;85.70;;;;;;21142861;28;20097;-55
2023/06/21 14:52:58;;;;;;;13.90;8.50;;;31.50;84.40;;;;;;21162291;28;20036;-50
2023/06/21 15:03:00;;;;;;;12.50;8.38;;;31.40;84.70;;;;;;21141585;28;20035;-48
2023/06/21 15:13:02;;;;;;;16.05;8.50;;;30.00;87.70;;;;;;21159028;28;20069;-54
2023/06/21 15:23:04;;;;;;;11.68;7.78;;;30.30;85.80;;;;;;21158647;28;20089;-54
2023/06/21 15:33:06;;;;;;;15.38;8.45;;;29.80;86.40;;;;;;21157435;28;20032;-44
2023/06/21 15:43:08;;;;;;;14.50;8.13;;;30.10;86.30;;;;;;21156741;28;20040;-53
2023/06/21 15:53:11;;;;;;;11.20;7.25;;;29.40;85.00;;;;;;21155876;28;20096;-54
2023/06/21 16:03:13;;;;;;;13.40;7.68;;;29.00;88.00;;;;;;21155047;28;20028;-54
2023/06/21 16:13:15;;;;;;;11.75;6.70;;;28.30;87.70;;;;;;21149658;28;20484;-52
2023/06/21 16:23:16;;;;;;;8.88;6.28;;;27.40;90.40;;;;;;21150385;28;20100;-53
2023/06/21 16:33:18;;;;;;;9.77;6.40;;;26.50;90.60;;;;;;21134466;28;20039;-52
2023/06/21 16:43:20;;;;;;;12.60;6.95;;;25.90;92.30;;;;;;21151702;28;20044;-53
2023/06/21 16:53:22;;;;;;;19.35;7.45;;;25.60;91.20;;;;;;21151733;28;20027;-53
2023/06/21 17:03:24;;;;;;;20.67;9.07;;;24.60;93.30;;;;;;21149352;28;20039;-50
2023/06/21 17:13:25;;;;;;;22.17;9.10;;;23.60;95.20;;;;;;21149498;28;20035;-52
2023/06/21 17:23:27;;;;;;;14.65;8.05;;;23.00;97.00;;;;;;21131664;28;20093;-52
2023/06/21 17:33:29;;;;;;;23.25;7.22;;;22.10;99.40;;;;;;21129870;28;20097;-51
2023/06/21 17:43:30;;;;;;;40.75;12.32;;;21.40;99.90;;;;;;21147175;28;20392;-50
2023/06/21 17:53:32;;;;;;;13.15;6.50;;;20.90;99.90;;;;;;21147443;28;20047;-49
2023/06/21 18:03:33;;;;;;;15.45;6.43;;;20.50;99.90;;;;;;21146403;28;20036;-54
2023/06/21 18:13:35;;;;;;;18.20;7.63;;;20.20;99.90;;;;;;21157707;28;20446;-51
2023/06/21 18:23:38;;;;;;;22.15;7.05;;;19.70;99.90;;;;;;21163631;28;20499;-53
2023/06/21 18:33:39;;;;;;;14.85;5.45;;;19.30;99.90;;;;;;21163757;28;20050;-51
2023/06/21 18:43:41;;;;;;;19.10;5.43;;;18.80;99.90;;;;;;21158613;28;20120;-52
2023/06/21 18:53:42;;;;;;;17.65;5.18;;;18.60;99.90;;;;;;21143034;28;20111;-49
2023/06/21 19:03:44;;;;;;;15.65;5.43;;;18.20;99.90;;;;;;21160212;28;20035;-53
2023/06/21 19:13:46;;;;;;;15.93;5.30;;;18.00;99.90;;;;;;21156706;28;20480;-52
2023/06/21 19:23:47;;;;;;;16.10;5.05;;;17.70;99.90;;;;;;21155222;28;20579;-51
2023/06/21 19:33:49;;;;;;;21.98;4.65;;;17.50;99.90;;;;;;21158431;28;20035;-46
2023/06/21 19:43:51;;;;;;;16.77;4.85;;;17.30;99.90;;;;;;21137742;28;20043;-50
2023/06/21 19:53:53;;;;;;;15.82;4.43;;;17.10;99.40;;;;;;21156714;28;20077;-50
2023/06/21 20:03:54;;;;;;;28.77;4.78;;;16.90;99.90;;;;;;21155201;28;20035;-53
2023/06/21 20:13:56;;;;;;;17.25;4.68;;;16.80;99.90;;;;;;21153734;28;20028;-52
2023/06/21 20:23:57;;;;;;;14.63;5.00;;;16.70;99.90;;;;;;21153657;28;20481;-50
2023/06/21 20:33:59;;;;;;;18.83;4.47;;;16.70;99.90;;;;;;21151063;28;20035;-49
2023/06/21 20:44:01;;;;;;;14.43;5.53;;;16.50;99.90;;;;;;21145356;28;20040;-51
2023/06/21 20:54:03;;;;;;;16.63;6.88;;;16.60;99.90;;;;;;21148657;28;20035;-56
2023/06/21 21:04:07;;;;;;;16.42;7.07;;;16.70;99.90;;;;;;21150266;28;20031;-50
2023/06/21 21:14:08;;;;;;;15.10;6.50;;;16.50;99.90;;;;;;21147520;28;20042;-52
2023/06/21 21:24:10;;;;;;;17.80;7.43;;;16.40;99.90;;;;;;21148363;28;20043;-50
2023/06/21 21:34:12;;;;;;;18.48;6.65;;;16.50;99.90;;;;;;21148423;28;20393;-53
2023/06/21 21:44:13;;;;;;;13.82;6.45;;;16.40;99.90;;;;;;21091034;28;20040;-50
2023/06/21 21:54:15;;;;;;;14.40;6.22;;;16.40;99.90;;;;;;21058853;28;20043;-51
2023/06/21 22:04:17;;;;;;;11.02;6.35;;;16.50;99.90;;;;;;21059461;28;20032;-50
2023/06/21 22:14:19;;;;;;;11.60;6.18;;;16.50;99.90;;;;;;21059943;28;20929;-52
2023/06/21 22:24:23;;;;;;;19.77;5.93;;;16.50;99.90;;;;;;21058301;28;20032;-52
2023/06/21 22:34:25;;;;;;;14.95;6.45;;;16.50;99.90;;;;;;21062378;28;20489;-54
2023/06/21 22:44:27;;;;;;;12.55;6.70;;;16.50;99.90;;;;;;21060667;28;20040;-54
2023/06/21 22:54:29;;;;;;;16.20;7.78;;;16.30;99.90;;;;;;21063080;28;20397;-55
2023/06/21 23:04:30;;;;;;;16.83;6.40;;;16.10;99.90;;;;;;21057495;28;20044;-48
2023/06/21 23:14:32;;;;;;;14.43;7.10;;;16.00;99.90;;;;;;21070727;28;20511;-46
2023/06/21 23:24:34;;;;;;;20.60;8.73;;;15.90;99.90;;;;;;21074326;28;20024;-47
2023/06/21 23:34:37;;;;;;;20.02;8.63;;;15.90;99.90;;;;;;21073370;28;20032;-51
2023/06/21 23:44:39;;;;;;;15.50;8.90;;;15.90;99.90;;;;;;21128355;28;20048;-51
2023/06/21 23:54:41;;;;;;;17.70;9.45;;;16.00;99.90;;;;;;21156468;28;20481;-50
